createdAt,value
2022-08-29T00:05:24.885Z,17.80
2022-08-29T00:11:08.080Z,13.00
2022-08-29T00:16:35.553Z,11.70
2022-08-29T00:21:51.629Z,11.80
2022-08-29T00:27:17.165Z,13.40
2022-08-29T00:33:06.949Z,10.00
2022-08-29T00:39:15.179Z,11.50
2022-08-29T00:45:19.064Z,10.10
2022-08-29T00:51:15.639Z,7.30
2022-08-29T00:57:09.450Z,11.20
2022-08-29T01:02:44.200Z,9.60
2022-08-29T01:08:30.186Z,6.70
2022-08-29T01:14:29.706Z,9.60
2022-08-29T01:20:40.489Z,7.40
2022-08-29T01:26:32.309Z,11.50
2022-08-29T01:32:27.940Z,9.80
2022-08-29T01:37:51.856Z,8.80
2022-08-29T01:43:07.573Z,8.50
2022-08-29T01:48:37.009Z,13.20
2022-08-29T01:54:19.833Z,9.70
2022-08-29T02:00:39.271Z,8.40
2022-08-29T02:06:45.322Z,10.60
2022-08-29T02:12:26.898Z,11.20
2022-08-29T02:18:12.613Z,8.20
2022-08-29T02:24:11.316Z,11.80
2022-08-29T02:30:01.642Z,9.30
2022-08-29T02:35:42.722Z,7.90
2022-08-29T02:41:58.626Z,10.20
2022-08-29T02:47:14.508Z,10.60
2022-08-29T02:52:37.145Z,10.30
2022-08-29T02:58:53.661Z,13.00
2022-08-29T03:04:26.517Z,12.00
2022-08-29T03:09:53.327Z,10.20
2022-08-29T03:15:18.750Z,14.00
2022-08-29T03:21:00.556Z,8.00
2022-08-29T03:26:42.202Z,9.80
2022-08-29T03:32:20.651Z,15.20
2022-08-29T03:38:22.873Z,10.30
2022-08-29T03:44:34.685Z,8.90
2022-08-29T03:50:23.939Z,9.40
2022-08-29T03:55:54.243Z,11.50
2022-08-29T04:01:28.339Z,11.80
2022-08-29T04:07:16.083Z,11.90
2022-08-29T04:13:08.048Z,13.40
2022-08-29T04:18:52.123Z,10.10
2022-08-29T04:30:02.440Z,13.60
2022-08-29T04:35:35.620Z,13.50
2022-08-29T04:41:00.691Z,13.00
2022-08-29T04:47:02.957Z,12.20
2022-08-29T04:52:26.176Z,13.60
2022-08-29T04:57:43.881Z,10.80
2022-08-29T05:03:56.589Z,10.40
2022-08-29T05:09:31.995Z,13.20
2022-08-29T05:15:40.674Z,11.50
2022-08-29T05:21:51.312Z,14.60
2022-08-29T05:27:56.435Z,12.20
2022-08-29T05:33:29.992Z,13.10
2022-08-29T05:39:36.018Z,14.80
2022-08-29T05:45:08.819Z,14.30
2022-08-29T05:51:10.141Z,13.40
2022-08-29T05:57:57.187Z,12.00
2022-08-29T06:03:18.071Z,11.80
2022-08-29T06:09:34.080Z,13.00
2022-08-29T06:14:59.240Z,11.90
2022-08-29T06:21:02.292Z,16.00
2022-08-29T06:26:40.544Z,11.80
2022-08-29T06:32:38.644Z,11.80
2022-08-29T06:38:25.056Z,14.00
2022-08-29T06:43:30.266Z,13.10
2022-08-29T06:48:53.932Z,11.20
2022-08-29T06:54:28.161Z,10.00
2022-08-29T07:00:21.392Z,8.60
2022-08-29T07:05:29.471Z,9.50
2022-08-29T07:10:32.304Z,11.60
2022-08-29T07:16:13.348Z,10.40
2022-08-29T07:21:35.778Z,10.70
2022-08-29T07:26:47.573Z,11.30
2022-08-29T07:31:50.227Z,9.20
2022-08-29T07:37:21.196Z,11.10
2022-08-29T07:42:28.609Z,14.30
2022-08-29T07:47:42.099Z,8.90
2022-08-29T07:53:00.550Z,8.50
2022-08-29T07:58:27.366Z,11.30
2022-08-29T08:03:38.828Z,10.80
2022-08-29T08:08:44.190Z,12.10
2022-08-29T08:14:00.031Z,7.50
2022-08-29T08:19:16.030Z,9.40
2022-08-29T08:24:28.403Z,15.80
2022-08-29T08:29:34.175Z,10.70
2022-08-29T08:34:36.407Z,8.70
2022-08-29T08:40:00.175Z,11.00
2022-08-29T08:45:23.076Z,10.80
2022-08-29T08:51:17.094Z,12.00
2022-08-29T08:56:37.817Z,9.20
2022-08-29T09:02:07.272Z,9.20
2022-08-29T09:08:02.330Z,8.00
2022-08-29T09:14:10.965Z,13.70
2022-08-29T09:19:17.568Z,8.40
2022-08-29T09:24:36.188Z,9.90
2022-08-29T09:29:50.203Z,6.90
2022-08-29T09:35:09.263Z,9.70
2022-08-29T09:40:19.290Z,6.30
2022-08-29T09:51:12.993Z,5.90
2022-08-29T09:56:37.578Z,5.50
2022-08-29T10:02:26.823Z,6.20
2022-08-29T10:08:00.221Z,9.20
2022-08-29T10:13:22.261Z,7.30
2022-08-29T10:18:52.974Z,4.30
2022-08-29T10:24:24.400Z,4.00
2022-08-29T10:29:56.079Z,6.80
2022-08-29T10:35:39.234Z,6.80
2022-08-29T10:41:16.359Z,6.80
2022-08-29T10:46:33.888Z,5.20
2022-08-29T10:51:52.499Z,5.70
2022-08-29T10:57:10.979Z,5.00
2022-08-29T11:02:38.303Z,7.50
2022-08-29T11:08:16.075Z,6.60
2022-08-29T11:13:38.532Z,7.00
2022-08-29T11:19:24.995Z,7.90
2022-08-29T11:24:38.154Z,7.80
2022-08-29T11:30:14.228Z,7.60
2022-08-29T11:35:25.128Z,6.50
2022-08-29T11:41:28.053Z,8.10
2022-08-29T11:46:40.816Z,9.80
2022-08-29T11:52:30.282Z,7.00
2022-08-29T11:57:46.014Z,5.10
2022-08-29T12:02:50.565Z,6.10
2022-08-29T12:08:37.044Z,7.20
2022-08-29T12:14:04.926Z,6.10
2022-08-29T12:19:11.138Z,7.80
2022-08-29T12:24:58.514Z,7.90
2022-08-29T12:30:14.498Z,5.50
2022-08-29T12:36:25.039Z,9.70
2022-08-29T12:41:46.830Z,6.00
2022-08-29T12:47:10.225Z,6.60
2022-08-29T12:52:27.554Z,5.80
2022-08-29T12:57:56.942Z,10.30
2022-08-29T13:03:15.169Z,4.30
2022-08-29T13:08:37.221Z,6.40
2022-08-29T13:14:16.526Z,7.60
2022-08-29T13:19:22.309Z,8.80
2022-08-29T13:24:30.421Z,4.30
2022-08-29T13:29:41.095Z,5.60
2022-08-29T13:35:24.475Z,4.70
2022-08-29T13:41:01.144Z,7.30
2022-08-29T13:46:30.415Z,5.20
2022-08-29T13:52:02.875Z,4.50
2022-08-29T13:57:38.843Z,3.40
2022-08-29T14:03:09.537Z,4.60
2022-08-29T14:08:15.297Z,4.80
2022-08-29T14:13:40.468Z,4.80
2022-08-29T14:18:58.008Z,3.30
2022-08-29T14:24:00.117Z,7.30
2022-08-29T14:29:04.917Z,3.40
2022-08-29T14:34:13.501Z,6.70
2022-08-29T14:39:16.651Z,5.00
2022-08-29T14:44:20.216Z,4.20
2022-08-29T14:49:28.729Z,3.20
2022-08-29T14:54:36.271Z,4.00
2022-08-29T14:59:45.223Z,5.50
2022-08-29T15:04:59.038Z,4.40
2022-08-29T15:10:05.104Z,4.80
2022-08-29T15:15:28.390Z,3.40
2022-08-29T15:20:38.648Z,7.60
2022-08-29T15:25:51.856Z,5.20
2022-08-29T15:30:59.941Z,4.50
2022-08-29T15:36:15.559Z,3.30
2022-08-29T15:41:24.569Z,6.60
2022-08-29T15:46:34.120Z,5.50
2022-08-29T15:52:00.747Z,4.60
2022-08-29T15:57:02.822Z,3.80
2022-08-29T16:02:12.853Z,5.00
2022-08-29T16:07:18.322Z,4.00
2022-08-29T16:12:21.948Z,5.30
2022-08-29T16:17:24.772Z,4.60
2022-08-29T16:22:28.588Z,6.00
2022-08-29T16:27:56.868Z,6.50
2022-08-29T16:33:02.031Z,5.10
2022-08-29T16:38:04.224Z,4.30
2022-08-29T16:43:07.620Z,3.40
2022-08-29T16:48:19.458Z,3.50
2022-08-29T16:53:21.889Z,5.40
2022-08-29T16:58:49.538Z,3.80
2022-08-29T17:04:12.225Z,3.70
2022-08-29T17:09:24.545Z,8.70
2022-08-29T17:14:40.020Z,4.80
2022-08-29T17:19:44.545Z,4.20
2022-08-29T17:25:10.173Z,5.30
2022-08-29T17:30:38.620Z,5.70
2022-08-29T17:36:18.562Z,4.80
2022-08-29T17:41:32.066Z,3.90
2022-08-29T17:46:52.149Z,7.50
2022-08-29T17:57:56.729Z,2.60
2022-08-29T18:03:05.399Z,4.70
2022-08-29T18:08:28.087Z,5.60
2022-08-29T18:13:31.171Z,4.70
2022-08-29T18:19:44.581Z,6.40
2022-08-29T18:25:28.536Z,4.90
2022-08-29T18:30:38.593Z,9.60
2022-08-29T18:41:04.830Z,6.30
2022-08-29T18:46:09.454Z,3.20
2022-08-29T18:51:39.131Z,5.60
2022-08-29T18:57:00.630Z,4.80
2022-08-29T19:02:13.473Z,9.00
2022-08-29T19:07:26.024Z,7.70
2022-08-29T19:12:28.414Z,9.10
2022-08-29T19:17:31.385Z,8.70
2022-08-29T19:22:36.589Z,7.20
2022-08-29T19:27:44.156Z,8.80
2022-08-29T19:32:47.051Z,10.60
2022-08-29T19:38:10.135Z,8.90
2022-08-29T19:43:32.609Z,7.90
2022-08-29T19:49:01.578Z,6.20
2022-08-29T19:54:24.082Z,10.70
2022-08-29T19:59:32.055Z,11.10
2022-08-29T20:04:49.019Z,12.80
2022-08-29T20:09:54.526Z,12.70
2022-08-29T20:15:30.831Z,9.60
2022-08-29T20:20:42.379Z,10.90
2022-08-29T20:26:13.644Z,7.70
2022-08-29T20:31:38.081Z,7.90
2022-08-29T20:37:09.847Z,8.60
2022-08-29T20:42:43.813Z,8.30
2022-08-29T20:48:09.843Z,8.40
2022-08-29T20:53:31.782Z,9.20
2022-08-29T20:58:44.003Z,7.50
2022-08-29T21:10:30.640Z,8.00
2022-08-29T21:15:58.978Z,15.30
2022-08-29T21:21:02.280Z,7.20
2022-08-29T21:26:38.673Z,7.50
2022-08-29T21:32:12.230Z,6.50
2022-08-29T21:37:44.340Z,8.60
2022-08-29T21:43:22.162Z,12.20
2022-08-29T21:49:36.832Z,9.70
2022-08-29T21:55:11.389Z,7.90
2022-08-29T22:00:37.100Z,10.50
2022-08-29T22:05:45.237Z,8.10
2022-08-29T22:10:53.752Z,5.50
2022-08-29T22:16:43.329Z,6.30
2022-08-29T22:22:08.367Z,6.50
2022-08-29T22:27:10.683Z,7.50
2022-08-29T22:32:14.173Z,6.60
2022-08-29T22:37:38.749Z,7.60
2022-08-29T22:43:05.362Z,5.30
2022-08-29T22:48:16.403Z,6.40
2022-08-29T22:53:21.398Z,6.10
2022-08-29T22:58:49.211Z,4.70
2022-08-29T23:04:13.667Z,5.80
2022-08-29T23:09:48.195Z,9.20
2022-08-29T23:15:17.483Z,9.00
2022-08-29T23:20:29.978Z,6.30
2022-08-29T23:25:32.233Z,6.20
2022-08-29T23:30:44.956Z,6.10
2022-08-29T23:35:57.800Z,8.70
2022-08-29T23:41:32.167Z,7.00
2022-08-29T23:46:55.769Z,9.10
2022-08-29T23:52:45.467Z,10.90
2022-08-29T23:58:08.379Z,5.30
